Time;durP1;ratioP1;P1;durP2;ratioP2;P2;SDS_P1;SDS_P2;PMS_P1;PMS_P2;Temp;Humidity;BMP_temperature;BMP_pressure;BME280_temperature;BME280_humidity;BME280_pressure;Samples;Min_cycle;Max_cycle;Signal;HPM_P1;HPM_P2
2022/04/16 00:00:06;;;;;;;13.70;9.90;;;9.10;99.90;;;;;;5056064;28;20045;-76
2022/04/16 00:02:32;;;;;;;14.87;9.70;;;9.10;99.90;;;;;;5055332;28;20045;-76
2022/04/16 00:04:58;;;;;;;14.43;9.67;;;9.10;99.90;;;;;;5055043;28;20275;-73
2022/04/16 00:07:24;;;;;;;13.77;9.30;;;9.00;99.90;;;;;;5053896;28;20290;-74
2022/04/16 00:09:49;;;;;;;13.50;9.30;;;8.90;99.90;;;;;;5055590;28;20045;-74
2022/04/16 00:12:15;;;;;;;13.83;9.73;;;8.90;99.90;;;;;;5055088;28;20041;-74
2022/04/16 00:14:41;;;;;;;14.73;9.83;;;8.90;99.90;;;;;;5055088;28;20080;-74
2022/04/16 00:17:07;;;;;;;14.43;9.87;;;8.90;99.90;;;;;;5055184;28;20533;-74
2022/04/16 00:19:33;;;;;;;13.90;9.47;;;8.80;99.90;;;;;;5054974;28;20276;-74
2022/04/16 00:22:00;;;;;;;13.83;9.53;;;8.80;99.90;;;;;;5054982;28;20049;-73
2022/04/16 00:24:29;;;;;;;13.50;9.33;;;8.70;99.90;;;;;;5054856;28;20279;-74
2022/04/16 00:26:55;;;;;;;13.67;9.07;;;8.70;99.90;;;;;;5054480;28;20280;-74
2022/04/16 00:29:21;;;;;;;13.40;9.40;;;8.70;99.90;;;;;;5055267;28;20298;-74
2022/04/16 00:31:46;;;;;;;11.57;9.27;;;8.60;99.90;;;;;;5054851;28;20114;-74
2022/04/16 00:34:14;;;;;;;12.70;9.63;;;8.60;99.90;;;;;;5055203;28;20045;-74
2022/04/16 00:36:43;;;;;;;11.57;9.43;;;8.60;99.90;;;;;;5054748;28;20056;-74
2022/04/16 00:39:09;;;;;;;13.17;9.67;;;8.60;99.90;;;;;;5037287;28;20658;-74
2022/04/16 00:41:35;;;;;;;13.63;10.27;;;8.60;99.90;;;;;;5053917;28;20287;-74
2022/04/16 00:44:01;;;;;;;14.00;10.03;;;8.60;99.90;;;;;;5055171;28;20330;-74
2022/04/16 00:46:27;;;;;;;13.20;9.60;;;8.60;99.90;;;;;;5054537;28;20279;-74
2022/04/16 00:48:53;;;;;;;15.83;11.57;;;8.60;99.90;;;;;;5054514;28;20092;-74
2022/04/16 00:51:20;;;;;;;19.03;11.90;;;8.70;99.90;;;;;;5054222;28;20613;-74
2022/04/16 00:53:46;;;;;;;15.83;10.73;;;8.70;99.90;;;;;;5054350;28;20284;-74
2022/04/16 00:56:13;;;;;;;13.93;10.83;;;8.70;99.90;;;;;;5054305;28;20775;-74
2022/04/16 00:58:42;;;;;;;15.73;11.97;;;8.70;99.90;;;;;;5054307;28;20049;-74
2022/04/16 01:01:09;;;;;;;15.20;10.97;;;8.70;99.90;;;;;;5054249;28;20290;-73
2022/04/16 01:03:35;;;;;;;14.60;11.57;;;8.70;99.90;;;;;;5054158;28;20290;-74
2022/04/16 01:06:01;;;;;;;16.43;11.73;;;8.70;99.90;;;;;;5054111;28;20757;-74
2022/04/16 01:08:27;;;;;;;15.70;11.40;;;8.70;99.90;;;;;;5054065;28;20290;-74
2022/04/16 01:10:52;;;;;;;18.00;12.97;;;8.80;99.90;;;;;;5053974;28;20178;-74
2022/04/16 01:13:18;;;;;;;18.03;13.17;;;8.80;99.90;;;;;;5053991;28;20095;-74
2022/04/16 01:15:47;;;;;;;17.40;12.37;;;8.80;99.90;;;;;;5054549;28;20086;-74
2022/04/16 01:18:13;;;;;;;19.73;13.70;;;8.80;99.90;;;;;;5053609;28;20505;-74
2022/04/16 01:20:39;;;;;;;15.37;12.80;;;8.70;99.90;;;;;;5053827;28;20279;-74
2022/04/16 01:23:06;;;;;;;17.03;12.17;;;8.70;99.90;;;;;;5054173;28;20551;-74
2022/04/16 01:25:33;;;;;;;18.97;13.33;;;8.70;99.90;;;;;;5052790;28;20776;-74
2022/04/16 01:28:01;;;;;;;20.17;13.43;;;8.70;99.90;;;;;;5053719;28;20288;-74
2022/04/16 01:30:28;;;;;;;17.97;14.50;;;8.70;99.90;;;;;;5053579;28;20299;-74
2022/04/16 01:32:53;;;;;;;16.77;13.40;;;8.70;99.90;;;;;;5054348;28;20286;-74
2022/04/16 01:35:19;;;;;;;17.07;13.13;;;8.70;99.90;;;;;;5052478;28;20276;-74
2022/04/16 01:37:45;;;;;;;18.73;13.33;;;8.70;99.90;;;;;;5053702;28;20370;-74
2022/04/16 01:40:14;;;;;;;19.40;15.37;;;8.70;99.90;;;;;;5053551;28;20279;-74
2022/04/16 01:42:42;;;;;;;21.47;14.23;;;8.60;99.90;;;;;;5054321;28;20048;-74
2022/04/16 01:45:09;;;;;;;17.50;14.40;;;8.60;99.90;;;;;;5054247;28;20275;-74
2022/04/16 01:47:36;;;;;;;19.57;14.77;;;8.50;99.90;;;;;;5053419;28;20291;-74
2022/04/16 01:50:05;;;;;;;20.40;13.90;;;8.50;99.90;;;;;;5052722;28;20803;-74
2022/04/16 01:52:32;;;;;;;20.83;15.50;;;8.40;99.90;;;;;;5053841;28;20354;-74
2022/04/16 01:54:58;;;;;;;21.50;16.47;;;;;;;;;;5053300;28;20283;-74
2022/04/16 01:57:24;;;;;;;17.50;14.90;;;;;;;;;;5035910;28;20286;-74
2022/04/16 01:59:52;;;;;;;18.87;15.37;;;;;;;;;;5053062;28;20282;-74
2022/04/16 02:02:22;;;;;;;21.93;16.33;;;8.40;99.90;;;;;;5053884;28;20311;-74
2022/04/16 02:04:48;;;;;;;19.10;15.50;;;8.30;99.90;;;;;;5053078;28;20277;-74
2022/04/16 02:07:14;;;;;;;20.30;16.17;;;8.20;99.90;;;;;;5053526;28;20628;-74
2022/04/16 02:09:40;;;;;;;20.80;16.07;;;8.20;99.90;;;;;;5053023;28;20291;-74
2022/04/16 02:12:07;;;;;;;22.50;17.02;;;8.10;99.90;;;;;;5053077;28;20694;-74
2022/04/16 02:14:33;;;;;;;22.93;18.70;;;8.10;99.90;;;;;;5035428;28;20045;-74
2022/04/16 02:16:59;;;;;;;19.80;16.00;;;8.10;99.90;;;;;;5052650;28;20345;-74
2022/04/16 02:19:26;;;;;;;24.53;18.10;;;8.00;99.90;;;;;;5053448;28;20052;-74
2022/04/16 02:21:52;;;;;;;22.73;16.83;;;8.00;99.90;;;;;;5035571;28;20383;-74
2022/04/16 02:24:18;;;;;;;20.37;16.47;;;8.00;99.90;;;;;;5053300;28;20383;-74
2022/04/16 02:26:44;;;;;;;21.83;16.63;;;8.00;99.90;;;;;;5035006;28;20041;-74
2022/04/16 02:29:13;;;;;;;24.63;18.73;;;8.00;99.90;;;;;;5052827;28;20374;-74
2022/04/16 02:31:39;;;;;;;26.03;18.60;;;7.90;99.90;;;;;;5052832;28;20492;-74
2022/04/16 02:34:07;;;;;;;23.80;18.08;;;7.90;99.90;;;;;;5052900;28;20275;-74
2022/04/16 02:36:33;;;;;;;23.27;18.63;;;7.90;99.90;;;;;;5052738;28;20099;-74
2022/04/16 02:39:00;;;;;;;22.23;17.93;;;7.80;99.90;;;;;;5052783;28;20307;-74
2022/04/16 02:41:26;;;;;;;23.38;18.00;;;7.80;99.90;;;;;;5053275;28;20279;-74
2022/04/16 02:43:55;;;;;;;22.67;18.17;;;7.80;99.90;;;;;;5052753;28;20045;-74
2022/04/16 02:49:07;;;;;;;23.98;18.25;;;7.80;99.90;;;;;;5052748;28;20110;-74
2022/04/16 02:51:33;;;;;;;22.33;18.27;;;7.70;99.90;;;;;;5050999;28;20140;-74
2022/04/16 02:53:59;;;;;;;26.50;19.00;;;7.70;99.90;;;;;;5052399;28;20818;-74
2022/04/16 02:56:25;;;;;;;24.60;18.33;;;7.60;99.90;;;;;;5052749;28;20045;-74
2022/04/16 02:58:51;;;;;;;23.90;19.10;;;7.60;99.90;;;;;;5052667;28;20045;-74
2022/04/16 03:01:17;;;;;;;25.73;20.37;;;7.60;99.90;;;;;;5052608;28;20122;-73
2022/04/16 03:03:42;;;;;;;25.47;19.40;;;7.60;99.90;;;;;;5053375;28;20052;-74
2022/04/16 03:06:08;;;;;;;24.20;18.43;;;7.60;99.90;;;;;;5056351;28;20279;-74
2022/04/16 03:08:34;;;;;;;24.93;18.80;;;7.50;99.90;;;;;;5038701;28;20072;-74
2022/04/16 03:11:00;;;;;;;23.10;19.10;;;7.50;99.90;;;;;;5056173;28;20771;-74
2022/04/16 03:13:26;;;;;;;22.70;18.80;;;7.50;99.90;;;;;;5056202;28;20087;-74
2022/04/16 03:18:38;;;;;;;27.42;20.52;;;;;;;;;;5056198;28;20059;-74
2022/04/16 03:21:04;;;;;;;26.08;20.50;;;;;;;;;;5056878;28;20047;-74
2022/04/16 03:23:29;;;;;;;26.85;20.95;;;7.40;99.90;;;;;;5056597;28;20163;-74
2022/04/16 03:26:00;;;;;;;27.13;21.23;;;7.40;99.90;;;;;;5056392;28;20084;-74
2022/04/16 03:28:26;;;;;;;28.92;20.70;;;7.40;99.90;;;;;;5056474;28;20051;-74
2022/04/16 03:30:53;;;;;;;27.38;21.08;;;7.30;99.90;;;;;;5055957;28;20114;-74
2022/04/16 03:33:19;;;;;;;28.15;20.48;;;7.30;99.90;;;;;;5055828;28;20053;-74
2022/04/16 03:35:46;;;;;;;28.85;21.60;;;7.30;99.90;;;;;;5055452;28;20143;-74
2022/04/16 03:38:12;;;;;;;27.13;20.13;;;7.30;99.90;;;;;;5055787;28;20068;-74
2022/04/16 03:40:38;;;;;;;31.57;21.80;;;7.30;99.90;;;;;;5055616;28;20041;-74
2022/04/16 03:43:04;;;;;;;30.30;22.50;;;7.20;99.90;;;;;;5055700;28;20055;-74
2022/04/16 03:45:31;;;;;;;28.47;22.90;;;7.20;99.90;;;;;;5055586;28;20481;-74
2022/04/16 03:47:58;;;;;;;30.40;23.07;;;7.20;99.90;;;;;;5038014;28;20109;-74
2022/04/16 03:50:26;;;;;;;30.05;22.52;;;7.20;99.90;;;;;;5055364;28;20723;-74
2022/04/16 03:52:53;;;;;;;30.75;22.95;;;7.30;99.90;;;;;;5055454;28;20131;-75
2022/04/16 04:00:51;;;;;;;32.08;23.63;;;7.30;99.90;;;;;;5055418;28;20091;-74
2022/04/16 04:03:18;;;;;;;27.63;22.25;;;7.20;99.90;;;;;;5054176;28;20056;-74
2022/04/16 04:05:45;;;;;;;30.13;22.55;;;7.20;99.90;;;;;;5054600;28;20045;-74
2022/04/16 04:08:11;;;;;;;29.52;23.33;;;7.30;99.90;;;;;;5037615;28;20444;-74
2022/04/16 04:10:38;;;;;;;29.70;22.48;;;7.30;99.90;;;;;;5055887;28;20045;-74
2022/04/16 04:13:04;;;;;;;30.52;22.85;;;7.30;99.90;;;;;;5055633;28;20045;-74
2022/04/16 04:15:30;;;;;;;28.05;22.05;;;7.30;99.90;;;;;;5053979;28;20048;-74
2022/04/16 04:17:58;;;;;;;30.30;22.60;;;7.40;99.90;;;;;;5053929;28;20135;-74
2022/04/16 04:20:25;;;;;;;26.63;21.70;;;7.40;99.90;;;;;;5055727;28;20041;-73
2022/04/16 04:22:51;;;;;;;31.52;22.95;;;7.40;99.90;;;;;;5054877;28;20469;-76
2022/04/16 04:25:17;;;;;;;27.50;21.10;;;7.40;99.90;;;;;;5054516;28;20489;-76
2022/04/16 04:27:42;;;;;;;27.33;21.93;;;7.40;99.90;;;;;;5054884;28;20049;-76
2022/04/16 04:30:09;;;;;;;27.43;21.00;;;7.50;99.90;;;;;;5054709;28;20044;-76
2022/04/16 04:32:36;;;;;;;28.83;22.40;;;7.50;99.90;;;;;;5055459;28;20059;-75
2022/04/16 04:35:02;;;;;;;28.15;23.23;;;7.50;99.90;;;;;;5055193;28;20567;-76
2022/04/16 04:37:28;;;;;;;29.38;22.95;;;7.60;99.90;;;;;;5054564;28;20045;-76
2022/04/16 04:39:54;;;;;;;30.10;23.73;;;7.60;99.90;;;;;;5037899;28;20060;-76
2022/04/16 04:42:27;;;;;;;29.27;22.73;;;7.60;99.90;;;;;;5036795;28;20045;-76
2022/04/16 04:44:53;;;;;;;29.38;24.02;;;7.60;99.90;;;;;;5054639;28;20060;-76
2022/04/16 04:47:18;;;;;;;28.25;23.17;;;7.70;99.90;;;;;;5054707;28;20072;-76
2022/04/16 04:49:44;;;;;;;28.57;23.40;;;7.70;99.90;;;;;;5055075;28;20040;-76
2022/04/16 04:52:10;;;;;;;31.97;23.40;;;7.70;99.90;;;;;;5036609;28;20057;-76
2022/04/16 04:54:36;;;;;;;26.33;22.47;;;7.70;99.90;;;;;;5053628;28;20045;-76
2022/04/16 04:57:05;;;;;;;29.73;23.57;;;7.80;99.90;;;;;;5054516;28;20049;-76
2022/04/16 04:59:30;;;;;;;29.13;23.52;;;7.80;99.90;;;;;;5053316;28;20049;-75
2022/04/16 05:01:56;;;;;;;30.47;25.23;;;7.80;99.90;;;;;;5054309;28;20155;-76
2022/04/16 05:04:21;;;;;;;27.83;24.13;;;7.80;99.90;;;;;;5055067;28;20127;-76
2022/04/16 05:06:47;;;;;;;27.20;24.20;;;7.90;99.90;;;;;;5036821;28;20057;-74
2022/04/16 05:09:13;;;;;;;28.25;24.65;;;7.90;99.90;;;;;;5054244;28;20041;-74
2022/04/16 05:11:39;;;;;;;34.80;25.83;;;8.00;99.90;;;;;;5054523;28;20381;-74
2022/04/16 05:14:04;;;;;;;30.07;25.07;;;8.00;99.90;;;;;;5054271;28;20072;-74
2022/04/16 05:16:30;;;;;;;30.63;24.20;;;8.10;99.90;;;;;;5054362;28;20099;-73
2022/04/16 05:18:56;;;;;;;30.73;25.43;;;8.10;99.90;;;;;;5053858;28;20084;-74
2022/04/16 05:21:21;;;;;;;26.20;22.93;;;8.10;99.90;;;;;;5036170;28;20041;-74
2022/04/16 05:23:47;;;;;;;31.60;25.87;;;8.20;99.90;;;;;;5053742;28;20052;-75
2022/04/16 05:26:13;;;;;;;28.63;24.77;;;8.20;99.90;;;;;;5052816;28;20481;-74
2022/04/16 05:28:40;;;;;;;30.27;25.43;;;8.20;99.90;;;;;;5053703;28;20374;-74
2022/04/16 05:31:07;;;;;;;31.53;24.80;;;8.30;99.90;;;;;;5053568;28;20045;-74
2022/04/16 05:36:17;;;;;;;31.40;25.75;;;8.40;99.90;;;;;;5053660;28;20679;-74
2022/04/16 05:38:44;;;;;;;32.20;26.07;;;;;;;;;;5054000;28;20052;-73
2022/04/16 05:41:10;;;;;;;30.83;27.40;;;8.40;99.90;;;;;;5053386;28;20045;-73
2022/04/16 05:43:36;;;;;;;30.30;26.43;;;8.50;99.90;;;;;;5053437;28;20636;-74
2022/04/16 05:46:02;;;;;;;31.20;27.80;;;8.50;99.90;;;;;;5053351;28;20310;-74
2022/04/16 05:48:28;;;;;;;31.83;27.97;;;8.50;99.90;;;;;;5053316;28;20052;-74
2022/04/16 05:50:57;;;;;;;32.15;27.85;;;8.50;99.90;;;;;;5053235;28;20136;-75
2022/04/16 05:53:23;;;;;;;33.87;27.57;;;8.60;99.90;;;;;;5053297;28;20052;-75
2022/04/16 05:55:53;;;;;;;31.63;27.30;;;8.60;99.90;;;;;;5053196;28;20374;-75
2022/04/16 05:58:19;;;;;;;33.30;27.57;;;8.60;99.90;;;;;;5053843;28;20424;-74
2022/04/16 06:00:45;;;;;;;33.07;28.47;;;8.60;99.90;;;;;;5053245;28;20333;-74
2022/04/16 06:03:12;;;;;;;32.57;27.30;;;8.90;99.90;;;;;;5053152;28;20045;-75
2022/04/16 06:05:37;;;;;;;31.47;27.27;;;8.60;99.90;;;;;;5052827;28;20128;-74
2022/04/16 06:08:03;;;;;;;32.87;27.40;;;8.60;99.90;;;;;;5035693;28;20749;-75
2022/04/16 06:10:29;;;;;;;34.57;27.10;;;8.60;99.90;;;;;;5053389;28;20103;-75
2022/04/16 06:12:55;;;;;;;33.13;28.53;;;8.60;99.90;;;;;;5053473;28;20287;-75
2022/04/16 06:15:22;;;;;;;32.13;25.80;;;8.60;99.90;;;;;;5035441;28;20374;-75
2022/04/16 06:17:47;;;;;;;30.83;25.58;;;8.60;99.90;;;;;;5053383;28;20507;-75
2022/04/16 06:20:13;;;;;;;27.40;22.87;;;8.60;99.90;;;;;;5053188;28;20072;-75
2022/04/16 06:22:39;;;;;;;26.00;19.97;;;8.60;99.90;;;;;;5035421;28;20052;-75
2022/04/16 06:25:08;;;;;;;26.87;20.13;;;8.60;99.90;;;;;;5053096;28;20139;-75
2022/04/16 06:27:38;;;;;;;23.47;17.83;;;8.50;99.90;;;;;;5052968;28;20081;-75
2022/04/16 06:30:05;;;;;;;21.77;17.43;;;8.50;99.90;;;;;;5052901;28;20302;-75
2022/04/16 06:32:31;;;;;;;21.97;17.10;;;8.50;99.90;;;;;;5053021;28;20370;-75
2022/04/16 06:34:57;;;;;;;19.60;15.70;;;8.50;99.90;;;;;;5052997;28;20378;-75
2022/04/16 06:37:22;;;;;;;19.83;15.03;;;8.50;99.90;;;;;;5053035;28;20068;-75
2022/04/16 06:39:48;;;;;;;19.37;15.47;;;8.50;99.90;;;;;;5055526;28;20047;-75
2022/04/16 06:42:14;;;;;;;20.03;15.80;;;8.50;99.90;;;;;;5039161;28;20080;-75
2022/04/16 06:44:39;;;;;;;18.47;13.40;;;8.50;99.90;;;;;;5056699;28;20053;-74
2022/04/16 06:47:05;;;;;;;18.77;14.50;;;8.60;99.90;;;;;;5056521;28;20110;-75
2022/04/16 06:49:31;;;;;;;19.97;14.53;;;8.60;99.90;;;;;;5056374;28;20047;-75
2022/04/16 06:51:56;;;;;;;17.23;13.43;;;8.80;99.90;;;;;;5056696;28;20059;-74
2022/04/16 06:54:22;;;;;;;19.73;14.70;;;9.00;99.90;;;;;;5056657;28;20055;-75
2022/04/16 06:56:47;;;;;;;16.57;13.17;;;9.20;99.90;;;;;;5057177;28;20049;-75
2022/04/16 06:59:14;;;;;;;16.73;12.70;;;9.60;99.90;;;;;;5055907;28;20551;-74
2022/04/16 07:01:39;;;;;;;18.37;12.80;;;10.20;99.90;;;;;;5056798;28;20515;-75
2022/04/16 07:04:05;;;;;;;15.63;12.53;;;10.10;99.90;;;;;;5055810;28;20283;-74
2022/04/16 07:06:30;;;;;;;16.10;12.73;;;10.10;99.90;;;;;;5055551;28;20060;-75
2022/04/16 07:08:56;;;;;;;16.57;11.60;;;10.10;99.90;;;;;;5038856;28;20140;-75
2022/04/16 07:11:22;;;;;;;17.17;12.60;;;10.10;99.90;;;;;;5056328;28;20044;-75
2022/04/16 07:13:48;;;;;;;17.50;12.53;;;10.20;99.90;;;;;;5038702;28;20091;-74
2022/04/16 07:16:13;;;;;;;15.40;11.70;;;10.30;99.90;;;;;;5056283;28;20044;-75
2022/04/16 07:18:39;;;;;;;15.60;11.33;;;10.50;99.90;;;;;;5056239;28;20056;-75
2022/04/16 07:21:05;;;;;;;15.17;11.20;;;10.60;99.90;;;;;;5056130;28;20128;-75
2022/04/16 07:23:30;;;;;;;15.40;11.13;;;10.90;99.90;;;;;;5056105;28;20055;-74
2022/04/16 07:25:56;;;;;;;15.43;11.67;;;11.40;99.90;;;;;;5056082;28;20139;-75
2022/04/16 07:28:22;;;;;;;14.70;10.70;;;;;;;;;;5055995;28;20052;-75
2022/04/16 07:30:51;;;;;;;12.87;9.90;;;13.00;99.90;;;;;;5056385;28;20041;-74
2022/04/16 07:33:18;;;;;;;13.80;10.83;;;14.50;94.20;;;;;;5038163;28;20357;-74
2022/04/16 07:35:44;;;;;;;16.87;10.70;;;15.50;99.90;;;;;;5038507;28;20794;-75
2022/04/16 07:38:10;;;;;;;15.10;11.13;;;16.30;94.60;;;;;;5055824;28;20322;-75
2022/04/16 07:40:36;;;;;;;15.47;10.20;;;17.10;89.20;;;;;;5038056;28;20282;-75
2022/04/16 07:43:02;;;;;;;13.57;9.97;;;17.70;82.90;;;;;;5055757;28;20283;-75
2022/04/16 07:45:28;;;;;;;13.37;10.23;;;18.50;70.70;;;;;;5056609;28;20389;-75
2022/04/16 07:47:54;;;;;;;13.43;10.37;;;18.60;69.90;;;;;;5055670;28;20429;-75
2022/04/16 07:50:20;;;;;;;11.27;9.53;;;;;;;;;;5055204;28;20135;-75
2022/04/16 07:52:47;;;;;;;12.23;9.63;;;18.50;62.40;;;;;;5055582;28;20049;-75
2022/04/16 07:55:14;;;;;;;13.77;9.73;;;;;;;;;;5055867;28;20037;-74
2022/04/16 07:57:40;;;;;;;13.37;10.20;;;;;;;;;;5055752;28;20051;-75
2022/04/16 08:00:07;;;;;;;11.43;9.43;;;16.50;64.10;;;;;;5055433;28;20099;-74
2022/04/16 08:02:33;;;;;;;13.07;10.10;;;16.00;67.00;;;;;;5055594;28;20045;-75
2022/04/16 08:04:59;;;;;;;13.27;10.03;;;15.40;67.60;;;;;;5055877;28;20488;-74
2022/04/16 08:07:25;;;;;;;13.87;9.67;;;14.60;69.60;;;;;;5055278;28;20041;-75
2022/04/16 08:09:50;;;;;;;14.43;10.53;;;14.50;70.00;;;;;;5055175;28;20041;-74
2022/04/16 08:12:18;;;;;;;13.47;9.83;;;14.30;71.80;;;;;;5055172;28;20691;-75
2022/04/16 08:14:44;;;;;;;14.60;9.43;;;14.10;74.10;;;;;;5055179;28;20045;-75
2022/04/16 08:17:09;;;;;;;14.47;9.20;;;14.00;73.50;;;;;;5055628;28;20329;-75
2022/04/16 08:19:35;;;;;;;12.17;9.07;;;13.70;73.50;;;;;;5055085;28;20436;-75
2022/04/16 08:22:06;;;;;;;14.30;9.73;;;13.50;76.30;;;;;;5037421;28;20141;-75
2022/04/16 08:24:41;;;;;;;15.40;10.07;;;13.20;78.60;;;;;;5055328;28;20527;-75
2022/04/16 08:27:07;;;;;;;11.83;8.97;;;13.00;80.50;;;;;;5055009;28;20283;-75
2022/04/16 08:29:33;;;;;;;14.73;9.70;;;13.00;83.20;;;;;;5054812;28;20291;-75
2022/04/16 08:31:59;;;;;;;13.03;8.90;;;13.00;85.20;;;;;;5054870;28;20284;-75
2022/04/16 08:34:24;;;;;;;12.77;8.83;;;13.00;85.30;;;;;;5054833;28;20348;-75
2022/04/16 08:36:51;;;;;;;13.43;9.70;;;12.90;85.50;;;;;;5037183;28;20048;-75
2022/04/16 08:39:16;;;;;;;15.23;9.93;;;12.80;86.80;;;;;;5054728;28;20047;-75
2022/04/16 08:41:42;;;;;;;13.80;9.10;;;12.80;86.20;;;;;;5054390;28;20284;-75
2022/04/16 08:44:09;;;;;;;14.67;9.50;;;12.60;87.70;;;;;;5054590;28;20091;-74
2022/04/16 08:46:35;;;;;;;12.30;8.47;;;12.50;89.70;;;;;;5054311;28;20489;-75
2022/04/16 08:49:01;;;;;;;15.07;9.63;;;12.50;90.50;;;;;;5053536;28;20353;-75
2022/04/16 08:51:27;;;;;;;11.90;8.07;;;12.50;90.50;;;;;;5054336;28;20771;-75
2022/04/16 08:53:53;;;;;;;12.93;8.30;;;12.50;90.00;;;;;;5054051;28;20675;-75
2022/04/16 08:56:19;;;;;;;11.17;8.13;;;12.50;89.40;;;;;;5036844;28;20727;-75
2022/04/16 08:58:45;;;;;;;12.53;8.20;;;12.50;86.90;;;;;;5054830;28;20296;-75
2022/04/16 09:01:11;;;;;;;11.47;7.97;;;12.40;87.90;;;;;;5054045;28;20041;-75
2022/04/16 09:03:39;;;;;;;10.83;7.33;;;12.30;88.90;;;;;;5054197;28;20442;-75
2022/04/16 09:06:07;;;;;;;11.57;8.20;;;12.40;85.70;;;;;;5054139;28;20287;-77
2022/04/16 09:08:33;;;;;;;11.73;7.40;;;12.40;87.30;;;;;;5054601;28;20302;-78
2022/04/16 09:11:11;;;;;;;10.43;7.20;;;12.40;87.20;;;;;;5053726;28;20706;-78
2022/04/16 09:13:49;;;;;;;11.67;7.70;;;12.40;89.90;;;;;;5036077;28;20304;-75
2022/04/16 09:16:15;;;;;;;9.50;6.80;;;12.60;86.80;;;;;;5036518;28;20328;-75
2022/04/16 09:18:50;;;;;;;10.27;6.47;;;12.60;84.50;;;;;;5053921;28;20283;-75
2022/04/16 09:21:16;;;;;;;10.02;6.70;;;12.50;84.90;;;;;;5036316;28;20716;-75
2022/04/16 09:23:47;;;;;;;10.10;6.50;;;12.50;87.60;;;;;;5053905;28;20428;-77
2022/04/16 09:26:35;;;;;;;11.70;6.60;;;12.50;87.70;;;;;;5053836;28;20276;-76
2022/04/16 09:29:10;;;;;;;10.00;6.00;;;12.50;82.10;;;;;;5053740;28;20326;-76
2022/04/16 09:31:43;;;;;;;9.13;5.70;;;12.50;82.70;;;;;;5053665;28;20790;-76
2022/04/16 09:34:17;;;;;;;8.93;5.80;;;12.60;80.20;;;;;;5053662;28;20280;-77
2022/04/16 09:36:44;;;;;;;8.27;5.60;;;12.60;83.00;;;;;;5053745;28;20284;-77
2022/04/16 09:39:10;;;;;;;7.67;5.17;;;12.60;79.80;;;;;;5053619;28;20048;-77
2022/04/16 09:41:38;;;;;;;8.37;4.73;;;12.70;81.10;;;;;;5036366;28;20597;-75
2022/04/16 09:44:15;;;;;;;7.37;4.97;;;12.70;78.40;;;;;;5035928;28;20633;-75
2022/04/16 09:46:46;;;;;;;7.43;4.13;;;12.70;77.60;;;;;;5053519;28;20280;-75
2022/04/16 09:49:13;;;;;;;8.70;4.00;;;12.80;72.30;;;;;;5054292;28;20276;-75
2022/04/16 09:51:42;;;;;;;7.00;3.97;;;12.80;76.20;;;;;;5053985;28;20306;-76
2022/04/16 09:54:11;;;;;;;6.73;4.13;;;12.80;71.30;;;;;;5053874;28;20624;-75
2022/04/16 09:56:39;;;;;;;8.30;4.20;;;12.90;71.70;;;;;;5053403;28;20286;-75
2022/04/16 09:59:09;;;;;;;6.63;3.93;;;12.90;73.60;;;;;;5053063;28;20775;-75
2022/04/16 10:01:41;;;;;;;7.83;3.47;;;13.00;73.40;;;;;;5054109;28;20294;-75
2022/04/16 10:04:08;;;;;;;8.90;3.40;;;13.00;70.90;;;;;;5035441;28;20803;-75
2022/04/16 10:06:34;;;;;;;6.57;3.20;;;13.10;69.10;;;;;;5053724;28;20752;-75
2022/04/16 10:09:13;;;;;;;5.97;2.30;;;13.10;67.90;;;;;;5053202;28;20341;-75
2022/04/16 10:14:56;;;;;;;5.27;2.47;;;13.10;64.20;;;;;;5001159;28;20317;-75
2022/04/16 10:17:42;;;;;;;5.73;2.50;;;13.10;63.10;;;;;;5057398;28;20283;-75
2022/04/16 10:20:10;;;;;;;6.28;2.85;;;13.10;59.50;;;;;;5040335;28;20302;-75
2022/04/16 10:22:36;;;;;;;4.90;2.53;;;13.10;62.00;;;;;;5057555;28;20045;-75
2022/04/16 10:25:03;;;;;;;5.07;2.30;;;13.20;62.30;;;;;;5058056;28;20283;-75
2022/04/16 10:27:32;;;;;;;5.33;2.60;;;13.20;62.10;;;;;;5057718;28;20627;-76
2022/04/16 10:30:12;;;;;;;7.07;2.50;;;13.20;60.80;;;;;;5056102;28;20386;-75
2022/04/16 10:32:43;;;;;;;5.23;2.90;;;13.20;60.50;;;;;;5040415;28;20300;-76
2022/04/16 10:35:17;;;;;;;4.97;2.47;;;13.20;58.80;;;;;;5057184;28;20687;-75
2022/04/16 10:37:49;;;;;;;4.90;2.33;;;13.20;60.10;;;;;;5057066;28;20284;-76
2022/04/16 10:40:23;;;;;;;4.23;2.07;;;13.30;58.10;;;;;;5056932;28;20283;-75
2022/04/16 10:42:51;;;;;;;4.90;2.20;;;13.30;58.80;;;;;;5057232;28;20326;-75
2022/04/16 10:45:17;;;;;;;3.50;1.80;;;13.30;59.20;;;;;;5039578;28;20775;-75
2022/04/16 10:47:43;;;;;;;4.03;1.90;;;13.30;57.40;;;;;;5056877;28;20283;-75
2022/04/16 10:50:17;;;;;;;4.17;2.17;;;13.30;57.70;;;;;;5056869;28;20308;-75
2022/04/16 10:53:00;;;;;;;4.33;1.80;;;13.30;56.50;;;;;;5056688;28;20371;-75
2022/04/16 10:55:36;;;;;;;4.77;2.10;;;13.30;57.40;;;;;;5057250;28;20628;-75
2022/04/16 10:58:04;;;;;;;3.73;1.90;;;13.30;56.80;;;;;;5056871;28;20279;-75
2022/04/16 11:00:46;;;;;;;4.00;2.00;;;13.30;57.60;;;;;;5057280;28;20278;-75
2022/04/16 11:03:27;;;;;;;4.70;2.30;;;13.40;57.40;;;;;;5040384;28;20284;-75
2022/04/16 11:06:01;;;;;;;4.13;1.77;;;13.40;55.80;;;;;;5056433;28;20283;-75
2022/04/16 11:08:28;;;;;;;4.10;1.90;;;13.40;55.90;;;;;;5056929;28;20268;-75
2022/04/16 11:10:58;;;;;;;5.77;2.40;;;13.40;56.40;;;;;;5056292;28;20355;-75
2022/04/16 11:13:26;;;;;;;4.27;2.20;;;13.40;56.40;;;;;;5056207;28;20287;-75
2022/04/16 11:15:52;;;;;;;3.57;1.87;;;13.50;55.70;;;;;;5038377;28;20291;-75
2022/04/16 11:18:18;;;;;;;4.53;2.20;;;13.50;54.80;;;;;;5056100;28;20314;-75
2022/04/16 11:20:56;;;;;;;4.57;1.90;;;13.50;54.80;;;;;;5055481;28;20037;-75
2022/04/16 11:23:26;;;;;;;4.80;2.10;;;13.50;55.10;;;;;;5055544;28;20287;-75
2022/04/16 11:34:14;;;;;;;4.37;2.30;;;13.50;54.30;;;;;;5056810;28;20282;-76
2022/04/16 11:36:40;;;;;;;;;;;13.50;54.80;;;;;;5056425;28;20276;-75
2022/04/16 11:39:16;;;;;;;3.80;2.00;;;13.50;53.30;;;;;;5056699;28;19943;-75
2022/04/16 11:41:55;;;;;;;3.63;1.80;;;13.50;55.40;;;;;;5055772;28;20128;-76
2022/04/16 11:44:30;;;;;;;3.77;1.83;;;13.60;52.40;;;;;;5055406;28;20302;-75
2022/04/16 11:46:56;;;;;;;7.13;1.92;;;13.60;51.50;;;;;;5055669;28;20288;-75
2022/04/16 11:49:22;;;;;;;3.13;1.60;;;13.70;52.80;;;;;;5055668;28;20053;-75
2022/04/16 11:51:48;;;;;;;3.20;1.57;;;13.70;50.90;;;;;;5055587;28;20304;-75
2022/04/16 11:54:14;;;;;;;4.30;1.57;;;13.70;51.00;;;;;;5056083;28;20284;-75
2022/04/16 11:56:49;;;;;;;3.10;1.23;;;13.70;50.50;;;;;;5055563;28;20044;-75
2022/04/16 11:59:23;;;;;;;2.20;1.10;;;13.80;47.40;;;;;;5055215;28;20477;-75
2022/04/16 12:01:57;;;;;;;3.43;1.10;;;13.70;47.70;;;;;;5055528;28;20351;-75
2022/04/16 12:04:42;;;;;;;2.63;1.33;;;13.70;47.50;;;;;;5056321;28;20284;-75
2022/04/16 12:07:13;;;;;;;3.05;1.15;;;13.70;43.90;;;;;;5038667;28;20632;-76
2022/04/16 12:09:45;;;;;;;2.10;1.23;;;13.70;44.60;;;;;;5055544;28;20131;-75
2022/04/16 12:12:18;;;;;;;3.57;1.57;;;13.70;44.50;;;;;;5055092;28;20295;-75
2022/04/16 12:14:49;;;;;;;2.00;1.20;;;13.70;44.20;;;;;;5037340;28;20366;-75
2022/04/16 12:17:26;;;;;;;4.03;1.30;;;13.70;44.80;;;;;;5037548;28;20375;-74
2022/04/16 12:20:02;;;;;;;2.27;1.17;;;13.70;44.20;;;;;;5055147;28;20315;-74
2022/04/16 12:22:28;;;;;;;3.10;1.20;;;13.70;43.90;;;;;;5055080;28;20291;-75
2022/04/16 12:24:54;;;;;;;4.30;1.33;;;13.70;42.80;;;;;;5055520;28;20279;-75
2022/04/16 12:27:27;;;;;;;2.47;1.33;;;13.70;44.80;;;;;;5054967;28;20303;-74
2022/04/16 12:29:59;;;;;;;2.20;1.00;;;13.70;44.40;;;;;;5055370;28;20413;-75
2022/04/16 12:32:27;;;;;;;3.03;1.30;;;13.80;43.80;;;;;;5054973;28;20271;-75
2022/04/16 12:34:53;;;;;;;2.07;1.13;;;13.80;42.70;;;;;;5053653;28;20275;-75
2022/04/16 12:37:20;;;;;;;1.63;0.93;;;13.80;42.70;;;;;;5053843;28;20280;-74
2022/04/16 12:39:46;;;;;;;2.87;1.00;;;13.80;42.70;;;;;;5054725;28;20053;-74
2022/04/16 12:42:12;;;;;;;3.60;1.20;;;13.80;42.50;;;;;;5055204;28;20286;-74
2022/04/16 12:44:38;;;;;;;3.20;0.90;;;13.80;43.30;;;;;;5054553;28;20283;-74
2022/04/16 12:47:03;;;;;;;2.23;1.20;;;13.80;41.60;;;;;;5054551;28;20334;-74
2022/04/16 12:49:29;;;;;;;2.97;0.87;;;13.80;41.80;;;;;;5037079;28;20052;-74
2022/04/16 12:51:55;;;;;;;3.03;1.07;;;13.90;42.40;;;;;;5054549;28;20505;-74
2022/04/16 12:54:21;;;;;;;2.43;1.20;;;13.90;42.90;;;;;;5036827;28;20053;-74
2022/04/16 12:56:47;;;;;;;2.80;1.07;;;13.90;41.40;;;;;;5054415;28;20054;-74
2022/04/16 12:59:15;;;;;;;2.20;1.00;;;13.90;41.70;;;;;;5054034;28;20397;-74
2022/04/16 13:01:41;;;;;;;3.43;1.10;;;14.00;40.20;;;;;;5054320;28;20330;-74
2022/04/16 13:04:07;;;;;;;3.60;0.93;;;13.90;40.40;;;;;;5055106;28;20311;-74
2022/04/16 13:06:33;;;;;;;1.97;0.90;;;13.90;40.40;;;;;;5054470;28;20556;-74
2022/04/16 13:09:02;;;;;;;2.53;1.00;;;13.90;42.00;;;;;;5054683;28;20049;-74